Avalon Express — WDD7919 — position and weather

sailwx.info

Track history (hours):
 
Tides and Currents Weather Stations Pressure Air Temp Water Temp Dewpoint Dewpoint Depression Visibility Wind Speed Wind Dir Waves Ship Positions

Avalon Express

Owner: RGWT INC, San Pedro, CA. More information available from US FCC via Universal Licensing System and Coast Guard Vessel Documentation Center.

Last reported at 2017-Mar-24 19:31 UTC. Time now 2017-Mar-26 09:15 UTC.
Position N 33°45' W 118°16'.

Length 33 m.

Type: High speed craft. MMSI: 367192940.

Date/timePositionNaut miles runAvg speedWind from/ knotsBaromVisibWave heightAir tempDewpointWater temp
2017-Mar-24 19:31N 33°45' W 118°16'0 0.1
2017-Mar-24 18:31N 33°45' W 118°16'0 0.0
2017-Mar-24 15:33N 33°45' W 118°16'0 0.0
2017-Mar-24 14:31N 33°45' W 118°16'0 0.0
2017-Mar-22 20:33N 33°45' W 118°16'3 3.1
2017-Mar-22 19:33N 33°42' W 118°15'3 1.6
2017-Mar-22 17:31N 33°40' W 118°17'  
2017-Mar-19 03:14N 33°45' W 118°16'0 0.1
2017-Mar-19 02:33N 33°45' W 118°16'6 6.2
2017-Mar-19 01:33N 33°39' W 118°15'1818.5
2017-Mar-19 00:33N 33°21' W 118°19'1 0.6
2017-Mar-18 23:33N 33°21' W 118°20'0 0.0
2017-Mar-18 22:31N 33°21' W 118°20'0 0.0
2017-Mar-18 21:33N 33°21' W 118°20'0 0.0
2017-Mar-18 20:33N 33°21' W 118°20'1 0.7
2017-Mar-18 19:33N 33°21' W 118°19'1212.2
2017-Mar-18 18:33N 33°33' W 118°16'1212.3
2017-Mar-18 17:33N 33°45' W 118°16'0 0.0
2017-Mar-18 16:27N 33°45' W 118°16'0 0.0
2017-Mar-18 15:32N 33°45' W 118°16'0 0.0
2017-Mar-18 14:26N 33°45' W 118°16'0 0.0
2017-Mar-18 13:33N 33°45' W 118°16'0 0.0
2017-Mar-17 22:07N 33°45' W 118°16'0 0.0
2017-Mar-17 21:33N 33°45' W 118°16'1 0.9
2017-Mar-17 20:33N 33°44' W 118°16'2020.4
2017-Mar-17 19:33N 33°28' W 118°31'2 1.5
2017-Mar-17 18:30N 33°27' W 118°30'1819.1
2017-Mar-17 17:33N 33°41' W 118°16'4 3.8
2017-Mar-17 16:33N 33°45' W 118°16'0 0.1
2017-Mar-17 15:33N 33°45' W 118°16'0 0.0
2017-Mar-17 14:33N 33°45' W 118°16'0 0.0
2017-Mar-17 13:33N 33°45' W 118°16'  
Track history (hours):
 
Tides and Currents Weather Stations Pressure Air Temp Water Temp Dewpoint Dewpoint Depression Visibility Wind Speed Wind Dir Waves Ship Positions

Avalon Express

Owner: RGWT INC, San Pedro, CA. More information available from US FCC via Universal Licensing System and Coast Guard Vessel Documentation Center.

Last reported at 2017-Mar-24 19:31 UTC. Time now 2017-Mar-26 09:15 UTC.
Position N 33°45' W 118°16'.

Length 33 m.

Type: High speed craft. MMSI: 367192940.

Date/timePositionNaut miles runAvg speedWind from/ knotsBaromVisibWave heightAir tempDewpointWater temp
2017-Mar-24 19:31N 33°45' W 118°16'0 0.1
2017-Mar-24 18:31N 33°45' W 118°16'0 0.0
2017-Mar-24 15:33N 33°45' W 118°16'0 0.0
2017-Mar-24 14:31N 33°45' W 118°16'0 0.0
2017-Mar-22 20:33N 33°45' W 118°16'3 3.1
2017-Mar-22 19:33N 33°42' W 118°15'3 1.6
2017-Mar-22 17:31N 33°40' W 118°17'  
2017-Mar-19 03:14N 33°45' W 118°16'0 0.1
2017-Mar-19 02:33N 33°45' W 118°16'6 6.2
2017-Mar-19 01:33N 33°39' W 118°15'1818.5
2017-Mar-19 00:33N 33°21' W 118°19'1 0.6
2017-Mar-18 23:33N 33°21' W 118°20'0 0.0
2017-Mar-18 22:31N 33°21' W 118°20'0 0.0
2017-Mar-18 21:33N 33°21' W 118°20'0 0.0
2017-Mar-18 20:33N 33°21' W 118°20'1 0.7
2017-Mar-18 19:33N 33°21' W 118°19'1212.2
2017-Mar-18 18:33N 33°33' W 118°16'1212.3
2017-Mar-18 17:33N 33°45' W 118°16'0 0.0
2017-Mar-18 16:27N 33°45' W 118°16'0 0.0
2017-Mar-18 15:32N 33°45' W 118°16'0 0.0
2017-Mar-18 14:26N 33°45' W 118°16'0 0.0
2017-Mar-18 13:33N 33°45' W 118°16'0 0.0
2017-Mar-17 22:07N 33°45' W 118°16'0 0.0
2017-Mar-17 21:33N 33°45' W 118°16'1 0.9
2017-Mar-17 20:33N 33°44' W 118°16'2020.4
2017-Mar-17 19:33N 33°28' W 118°31'2 1.5
2017-Mar-17 18:30N 33°27' W 118°30'1819.1
2017-Mar-17 17:33N 33°41' W 118°16'4 3.8
2017-Mar-17 16:33N 33°45' W 118°16'0 0.1
2017-Mar-17 15:33N 33°45' W 118°16'0 0.0
2017-Mar-17 14:33N 33°45' W 118°16'0 0.0
2017-Mar-17 13:33N 33°45' W 118°16'  

Dump ship's entire track history